createdAt,value
2023-01-12T00:01:53.819Z,6.80
2023-01-12T00:04:20.604Z,6.40
2023-01-12T00:06:48.423Z,7.00
2023-01-12T00:09:15.285Z,6.40
2023-01-12T00:11:42.023Z,7.10
2023-01-12T00:14:09.027Z,6.40
2023-01-12T00:16:38.061Z,6.60
2023-01-12T00:19:18.782Z,7.20
2023-01-12T00:22:11.157Z,6.50
2023-01-12T00:24:42.442Z,6.90
2023-01-12T00:27:11.308Z,6.90
2023-01-12T00:29:38.105Z,6.90
2023-01-12T00:32:05.774Z,7.80
2023-01-12T00:34:32.579Z,7.30
2023-01-12T00:37:02.578Z,6.70
2023-01-12T00:39:29.290Z,7.30
2023-01-12T00:42:14.937Z,6.40
2023-01-12T00:45:00.578Z,6.40
2023-01-12T00:47:27.315Z,6.30
2023-01-12T00:49:54.076Z,6.20
2023-01-12T00:52:30.419Z,6.20
2023-01-12T00:54:58.774Z,6.60
2023-01-12T00:57:25.629Z,6.40
2023-01-12T00:59:55.493Z,6.70
2023-01-12T01:02:22.968Z,5.90
2023-01-12T01:04:50.229Z,6.20
2023-01-12T01:07:17.353Z,6.10
2023-01-12T01:09:44.330Z,6.30
2023-01-12T01:12:11.092Z,6.20
2023-01-12T01:14:37.816Z,6.40
2023-01-12T01:17:04.551Z,5.90
2023-01-12T01:19:31.295Z,6.00
2023-01-12T01:21:58.039Z,5.80
2023-01-12T01:24:24.830Z,5.80
2023-01-12T01:26:51.627Z,6.40
2023-01-12T01:29:18.500Z,6.20
2023-01-12T01:31:47.709Z,6.10
2023-01-12T01:34:14.888Z,6.10
2023-01-12T01:36:41.591Z,6.10
2023-01-12T01:39:08.378Z,6.30
2023-01-12T01:41:35.074Z,7.00
2023-01-12T01:44:03.850Z,7.10
2023-01-12T01:46:46.186Z,6.10
2023-01-12T01:49:33.293Z,6.60
2023-01-12T01:52:03.263Z,6.40
2023-01-12T01:54:31.069Z,6.40
2023-01-12T01:56:57.930Z,6.10
2023-01-12T01:59:27.136Z,6.50
2023-01-12T02:01:53.932Z,6.80
2023-01-12T02:04:20.654Z,6.70
2023-01-12T02:06:48.450Z,6.80
2023-01-12T02:09:18.514Z,5.70
2023-01-12T02:12:05.057Z,6.70
2023-01-12T02:14:52.221Z,6.00
2023-01-12T02:17:22.202Z,6.20
2023-01-12T02:19:58.104Z,5.80
2023-01-12T02:22:58.796Z,6.10
2023-01-12T02:25:43.840Z,5.80
2023-01-12T02:28:19.757Z,5.00
2023-01-12T02:30:58.491Z,5.80
2023-01-12T02:34:03.603Z,5.80
2023-01-12T02:36:55.399Z,5.60
2023-01-12T02:39:28.005Z,5.90
2023-01-12T02:42:16.312Z,5.70
2023-01-12T02:44:53.164Z,5.90
2023-01-12T02:47:28.022Z,5.50
2023-01-12T02:49:55.630Z,6.00
2023-01-12T02:52:24.052Z,5.90
2023-01-12T02:54:50.786Z,5.80
2023-01-12T02:57:17.519Z,6.30
2023-01-12T02:59:45.658Z,6.50
2023-01-12T03:02:14.035Z,5.90
2023-01-12T03:04:42.047Z,6.00
2023-01-12T03:07:12.584Z,6.20
2023-01-12T03:09:51.156Z,5.80
2023-01-12T03:12:33.135Z,6.00
2023-01-12T03:15:00.815Z,6.70
2023-01-12T03:17:37.069Z,6.30
2023-01-12T03:20:07.613Z,6.40
2023-01-12T03:22:36.300Z,6.30
2023-01-12T03:25:09.296Z,7.30
2023-01-12T03:30:15.238Z,6.80
2023-01-12T03:32:41.940Z,5.60
2023-01-12T03:35:09.338Z,5.50
2023-01-12T03:37:54.405Z,6.20
2023-01-12T03:40:39.782Z,6.20
2023-01-12T03:43:15.217Z,5.70
2023-01-12T03:45:52.976Z,6.30
2023-01-12T03:48:41.773Z,6.40
2023-01-12T03:51:19.248Z,6.70
2023-01-12T03:53:49.191Z,5.80
2023-01-12T03:56:16.657Z,5.80
2023-01-12T03:58:43.697Z,6.00
2023-01-12T04:01:10.452Z,6.10
2023-01-12T04:03:37.271Z,6.10
2023-01-12T04:06:04.119Z,5.90
2023-01-12T04:08:31.696Z,5.60
2023-01-12T04:10:58.505Z,5.90
2023-01-12T04:13:25.377Z,6.50
2023-01-12T04:15:52.123Z,6.90
2023-01-12T04:18:18.833Z,5.50
2023-01-12T04:20:46.918Z,5.80
2023-01-12T04:23:13.606Z,6.00
2023-01-12T04:25:40.371Z,5.70
2023-01-12T04:28:07.219Z,6.10
2023-01-12T04:30:34.262Z,5.90
2023-01-12T04:33:01.185Z,7.10
2023-01-12T04:35:27.926Z,8.90
2023-01-12T04:37:54.876Z,8.90
2023-01-12T04:40:21.698Z,9.40
2023-01-12T04:43:02.217Z,8.40
2023-01-12T04:45:31.005Z,7.10
2023-01-12T04:48:05.666Z,6.80
2023-01-12T04:50:32.425Z,6.30
2023-01-12T04:53:01.894Z,6.10
2023-01-12T04:55:28.987Z,6.40
2023-01-12T04:57:56.614Z,7.90
2023-01-12T05:00:23.529Z,8.10
2023-01-12T05:02:50.343Z,7.10
2023-01-12T05:05:17.025Z,6.90
2023-01-12T05:08:03.686Z,6.60
2023-01-12T05:10:30.481Z,6.90
2023-01-12T05:12:57.343Z,7.60
2023-01-12T05:15:24.115Z,14.60
2023-01-12T05:17:50.890Z,11.20
2023-01-12T05:20:17.720Z,18.10
2023-01-12T05:22:44.446Z,17.30
2023-01-12T05:25:11.137Z,11.50
2023-01-12T05:27:37.829Z,7.80
2023-01-12T05:30:05.004Z,7.10
2023-01-12T05:32:38.913Z,7.30
2023-01-12T05:35:06.557Z,6.60
2023-01-12T05:37:33.277Z,9.20
2023-01-12T05:40:00.044Z,8.90
2023-01-12T05:42:45.446Z,9.10
2023-01-12T05:45:12.161Z,10.50
2023-01-12T05:47:38.862Z,10.10
2023-01-12T05:50:06.006Z,12.50
2023-01-12T05:52:32.696Z,10.40
2023-01-12T05:54:59.461Z,18.40
2023-01-12T05:57:26.173Z,21.20
2023-01-12T05:59:52.861Z,17.80
2023-01-12T06:02:21.652Z,12.70
2023-01-12T06:04:48.617Z,20.30
2023-01-12T06:07:15.887Z,23.50
2023-01-12T06:09:42.717Z,15.50
2023-01-12T06:12:32.146Z,10.10
2023-01-12T06:14:58.931Z,10.80
2023-01-12T06:17:25.660Z,13.30
2023-01-12T06:19:53.364Z,11.10
2023-01-12T06:22:20.074Z,10.20
2023-01-12T06:24:49.211Z,10.50
2023-01-12T06:27:16.601Z,11.70
2023-01-12T06:29:43.403Z,10.10
2023-01-12T06:32:10.294Z,10.90
2023-01-12T06:34:37.546Z,10.30
2023-01-12T06:37:04.880Z,10.10
2023-01-12T06:39:31.635Z,11.60
2023-01-12T06:42:17.145Z,9.60
2023-01-12T06:44:43.826Z,12.10
2023-01-12T06:47:10.524Z,10.40
2023-01-12T06:49:37.214Z,10.50
2023-01-12T06:52:04.074Z,10.20
2023-01-12T06:54:31.017Z,10.50
2023-01-12T06:56:57.765Z,10.20
2023-01-12T06:59:24.511Z,11.40
2023-01-12T07:01:51.458Z,10.60
2023-01-12T07:04:18.358Z,10.00
2023-01-12T07:06:45.684Z,10.30
2023-01-12T07:09:12.370Z,10.80
2023-01-12T07:11:39.111Z,10.50
2023-01-12T07:14:08.370Z,10.20
2023-01-12T07:16:36.079Z,11.10
2023-01-12T07:19:02.861Z,10.90
2023-01-12T07:21:29.572Z,11.00
2023-01-12T07:23:56.323Z,10.80
2023-01-12T07:26:23.028Z,11.00
2023-01-12T07:28:49.790Z,11.30
2023-01-12T07:31:16.650Z,11.40
2023-01-12T07:33:43.379Z,11.30
2023-01-12T07:36:10.169Z,11.90
2023-01-12T07:38:38.263Z,11.70
2023-01-12T07:41:05.061Z,11.60
2023-01-12T07:43:33.651Z,11.20
2023-01-12T07:46:00.574Z,11.90
2023-01-12T07:48:27.630Z,11.60
2023-01-12T07:50:54.584Z,11.00
2023-01-12T07:53:21.319Z,11.40
2023-01-12T07:55:48.065Z,10.50
2023-01-12T07:58:14.773Z,10.70
2023-01-12T08:00:41.884Z,10.80
2023-01-12T08:03:10.437Z,10.50
2023-01-12T08:05:37.526Z,9.50
2023-01-12T08:08:04.956Z,9.80
2023-01-12T08:10:31.763Z,10.30
2023-01-12T08:12:58.553Z,10.70
2023-01-12T08:15:25.525Z,9.80
2023-01-12T08:17:58.859Z,9.70
2023-01-12T08:20:32.252Z,9.10
2023-01-12T08:23:01.167Z,10.10
2023-01-12T08:25:31.609Z,9.60
2023-01-12T08:28:00.458Z,9.20
2023-01-12T08:30:27.274Z,8.20
2023-01-12T08:32:56.078Z,8.80
2023-01-12T08:35:23.038Z,7.70
2023-01-12T08:37:49.805Z,7.50
2023-01-12T08:40:16.548Z,8.10
2023-01-12T08:42:43.537Z,6.90
2023-01-12T08:45:10.755Z,7.50
2023-01-12T08:47:38.011Z,6.80
2023-01-12T08:50:05.156Z,7.00
2023-01-12T08:52:33.023Z,6.70
2023-01-12T08:55:00.289Z,6.60
2023-01-12T08:57:27.124Z,7.00
2023-01-12T08:59:53.813Z,6.30
2023-01-12T09:02:20.684Z,6.90
2023-01-12T09:04:47.510Z,6.90
2023-01-12T09:07:14.345Z,7.40
2023-01-12T09:09:41.087Z,6.90
2023-01-12T09:12:07.825Z,7.10
2023-01-12T09:14:38.781Z,7.10
2023-01-12T09:17:07.067Z,6.90
2023-01-12T09:19:34.211Z,6.50
2023-01-12T09:22:00.917Z,6.40
2023-01-12T09:24:27.693Z,6.80
2023-01-12T09:26:54.476Z,6.90
2023-01-12T09:29:21.235Z,7.00
2023-01-12T09:31:48.017Z,6.60
2023-01-12T09:34:14.842Z,6.90
2023-01-12T09:36:42.086Z,6.40
2023-01-12T09:39:10.385Z,8.30
2023-01-12T09:42:00.399Z,8.20
2023-01-12T09:44:58.704Z,8.60
2023-01-12T09:47:48.402Z,8.00
2023-01-12T09:50:20.443Z,7.70
2023-01-12T09:52:50.800Z,7.90
2023-01-12T09:55:19.625Z,8.60
2023-01-12T09:57:55.611Z,8.70
2023-01-12T10:00:22.451Z,8.20
2023-01-12T10:02:52.817Z,8.90
2023-01-12T10:05:38.871Z,9.00
2023-01-12T10:08:06.139Z,8.00
2023-01-12T10:10:32.823Z,8.80
2023-01-12T10:13:01.507Z,8.00
2023-01-12T10:15:43.874Z,9.30
2023-01-12T10:18:34.570Z,8.80
2023-01-12T10:21:01.302Z,8.30
2023-01-12T10:23:28.049Z,8.30
2023-01-12T10:26:21.794Z,7.90
2023-01-12T10:28:48.882Z,8.20
2023-01-12T10:31:19.276Z,8.20
2023-01-12T10:34:07.144Z,8.70
2023-01-12T10:36:42.004Z,8.60
2023-01-12T10:39:33.248Z,8.20
2023-01-12T10:42:34.811Z,8.60
2023-01-12T10:45:21.686Z,8.90
2023-01-12T10:47:49.526Z,8.10
2023-01-12T10:50:28.127Z,8.40
2023-01-12T10:53:06.125Z,10.10
2023-01-12T10:55:34.971Z,10.30
2023-01-12T10:58:01.748Z,10.10
2023-01-12T11:00:28.548Z,10.50
2023-01-12T11:02:55.521Z,9.80
2023-01-12T11:05:38.984Z,11.10
2023-01-12T11:08:27.551Z,10.20
2023-01-12T11:10:54.235Z,9.80
2023-01-12T11:13:26.627Z,11.80
2023-01-12T11:16:02.152Z,9.90
2023-01-12T11:18:52.707Z,9.80
2023-01-12T11:21:22.000Z,11.60
2023-01-12T11:24:07.710Z,11.10
2023-01-12T11:26:43.319Z,11.00
2023-01-12T11:29:39.727Z,11.70
2023-01-12T11:32:36.444Z,10.80
2023-01-12T11:35:30.254Z,10.80
2023-01-12T11:38:00.024Z,10.30
2023-01-12T11:40:31.199Z,11.50
2023-01-12T11:43:24.047Z,10.90
2023-01-12T11:45:55.174Z,10.40
2023-01-12T11:49:03.999Z,9.90
2023-01-12T11:51:30.819Z,11.20
2023-01-12T11:53:57.547Z,11.90
2023-01-12T11:56:42.258Z,11.80
2023-01-12T11:59:36.515Z,11.30
2023-01-12T12:02:37.566Z,10.70
2023-01-12T12:05:22.889Z,11.40
2023-01-12T12:07:55.674Z,10.70
2023-01-12T12:13:19.630Z,10.90
2023-01-12T12:15:58.417Z,10.40
2023-01-12T12:18:36.734Z,11.30
2023-01-12T12:21:13.380Z,11.00
2023-01-12T12:23:58.523Z,10.90
2023-01-12T12:26:35.247Z,11.30
2023-01-12T12:29:46.992Z,10.70
2023-01-12T12:32:59.045Z,10.60
2023-01-12T12:35:35.426Z,10.10
2023-01-12T12:38:30.065Z,11.60
2023-01-12T12:41:54.975Z,9.70
2023-01-12T12:44:43.178Z,10.20
2023-01-12T12:47:36.497Z,10.60
2023-01-12T12:50:04.080Z,9.90
2023-01-12T12:52:36.773Z,9.70
2023-01-12T12:55:03.834Z,9.20
2023-01-12T12:57:30.577Z,8.90
2023-01-12T13:00:03.737Z,9.10
2023-01-12T13:02:41.133Z,9.80
2023-01-12T13:05:10.547Z,10.10
2023-01-12T13:07:44.646Z,10.20
2023-01-12T13:10:21.264Z,10.30
2023-01-12T13:12:56.525Z,10.20
2023-01-12T13:15:24.440Z,10.40
2023-01-12T13:17:52.941Z,10.70
2023-01-12T13:20:25.824Z,11.20
2023-01-12T13:22:53.266Z,11.70
2023-01-12T13:25:20.761Z,11.90
2023-01-12T13:28:00.539Z,12.70
2023-01-12T13:30:30.458Z,11.90
2023-01-12T13:33:15.717Z,11.70
2023-01-12T13:35:46.371Z,12.40
2023-01-12T13:38:22.788Z,12.80
2023-01-12T13:40:56.140Z,13.30
2023-01-12T13:43:29.381Z,13.70
2023-01-12T13:46:04.553Z,14.40
2023-01-12T13:48:34.140Z,13.40
2023-01-12T13:51:25.555Z,15.40
2023-01-12T13:53:59.890Z,14.40
2023-01-12T13:56:26.860Z,15.60
2023-01-12T13:59:02.073Z,15.60
2023-01-12T14:01:48.001Z,15.80
2023-01-12T14:04:20.328Z,17.80
2023-01-12T14:07:06.393Z,16.00
2023-01-12T14:10:01.687Z,15.60
2023-01-12T14:13:00.056Z,13.00
2023-01-12T14:15:58.356Z,15.40
2023-01-12T14:18:27.048Z,15.30
2023-01-12T14:20:58.172Z,16.90
2023-01-12T14:23:30.181Z,15.50
2023-01-12T14:26:09.398Z,18.10
2023-01-12T14:28:36.923Z,17.00
2023-01-12T14:31:05.161Z,17.10
2023-01-12T14:33:33.742Z,16.50
2023-01-12T14:36:12.498Z,17.40
2023-01-12T14:38:42.542Z,18.90
2023-01-12T14:41:31.120Z,19.00
2023-01-12T14:44:16.686Z,19.00
2023-01-12T14:46:51.927Z,15.50
2023-01-12T14:49:32.124Z,14.40
2023-01-12T14:52:00.385Z,15.70
2023-01-12T14:54:32.135Z,16.80
2023-01-12T14:57:07.476Z,15.70
2023-01-12T14:59:35.938Z,15.50
2023-01-12T15:02:15.076Z,13.50
2023-01-12T15:05:00.796Z,15.10
2023-01-12T15:07:34.903Z,13.80
2023-01-12T15:10:21.453Z,13.80
2023-01-12T15:12:54.088Z,14.40
2023-01-12T15:15:23.080Z,13.60
2023-01-12T15:18:10.252Z,16.20
2023-01-12T15:20:57.790Z,15.70
2023-01-12T15:23:46.759Z,15.60
2023-01-12T15:26:13.648Z,15.30
2023-01-12T15:28:41.173Z,14.20
2023-01-12T15:31:23.579Z,15.30
2023-01-12T15:33:50.331Z,16.50
2023-01-12T15:36:17.175Z,15.40
2023-01-12T15:38:43.909Z,16.20
2023-01-12T15:41:19.358Z,17.30
2023-01-12T15:43:46.265Z,18.30
2023-01-12T15:46:20.184Z,17.40
2023-01-12T15:48:46.974Z,18.90
2023-01-12T15:51:14.714Z,20.80
2023-01-12T15:53:41.589Z,20.30
2023-01-12T15:56:11.498Z,19.10
2023-01-12T15:58:38.200Z,21.70
2023-01-12T16:01:07.086Z,21.90
2023-01-12T16:04:00.607Z,20.20
2023-01-12T16:06:20.768Z,22.10
2023-01-12T16:08:47.645Z,23.40
2023-01-12T16:11:18.004Z,24.30
2023-01-12T16:13:44.721Z,32.10
2023-01-12T16:16:14.923Z,30.60
2023-01-12T16:18:41.678Z,26.90
2023-01-12T16:21:09.016Z,25.30
2023-01-12T16:23:35.753Z,23.00
2023-01-12T16:26:02.499Z,23.30
2023-01-12T16:28:29.427Z,25.20
2023-01-12T16:30:56.908Z,32.70
2023-01-12T16:33:23.692Z,32.30
2023-01-12T16:35:53.685Z,30.60
2023-01-12T16:38:20.409Z,27.70
2023-01-12T16:40:47.122Z,25.10
2023-01-12T16:43:13.833Z,24.20
2023-01-12T16:45:41.636Z,21.80
2023-01-12T16:48:08.600Z,24.40
2023-01-12T16:50:40.019Z,23.70
2023-01-12T16:53:08.100Z,15.80
2023-01-12T16:55:37.177Z,23.90
2023-01-12T16:58:05.298Z,23.30
2023-01-12T17:00:33.626Z,23.60
2023-01-12T17:03:02.612Z,23.60
2023-01-12T17:05:29.945Z,24.80
2023-01-12T17:07:56.844Z,24.20
2023-01-12T17:10:26.593Z,23.00
2023-01-12T17:12:58.055Z,23.20
2023-01-12T17:15:27.168Z,25.90
2023-01-12T17:17:55.610Z,24.70
2023-01-12T17:20:22.455Z,24.90
2023-01-12T17:22:49.525Z,23.90
2023-01-12T17:25:16.408Z,24.00
2023-01-12T17:27:43.243Z,24.40
2023-01-12T17:30:10.929Z,24.20
2023-01-12T17:32:37.928Z,23.30
2023-01-12T17:35:07.908Z,23.90
2023-01-12T17:37:35.282Z,22.10
2023-01-12T17:40:02.477Z,23.50
2023-01-12T17:42:48.050Z,23.70
2023-01-12T17:45:18.241Z,24.80
2023-01-12T17:47:45.412Z,23.40
2023-01-12T17:50:13.533Z,22.20
2023-01-12T17:52:43.201Z,21.30
2023-01-12T17:55:10.177Z,22.10
2023-01-12T17:57:37.014Z,21.20
2023-01-12T18:00:07.450Z,20.60
2023-01-12T18:02:41.874Z,21.50
2023-01-12T18:05:09.561Z,23.30
2023-01-12T18:07:40.176Z,24.00
2023-01-12T18:10:13.334Z,25.50
2023-01-12T18:12:40.078Z,18.20
2023-01-12T18:15:07.360Z,22.60
2023-01-12T18:17:34.592Z,25.00
2023-01-12T18:20:01.328Z,24.30
2023-01-12T18:22:28.088Z,20.00
2023-01-12T18:24:54.852Z,17.90
2023-01-12T18:27:21.789Z,17.90
2023-01-12T18:29:48.549Z,18.00
2023-01-12T18:32:15.417Z,16.70
2023-01-12T18:34:44.750Z,17.10
2023-01-12T18:37:13.581Z,16.70
2023-01-12T18:39:43.992Z,16.80
2023-01-12T18:42:29.651Z,16.60
2023-01-12T18:44:59.485Z,17.90
2023-01-12T18:47:45.028Z,18.70
2023-01-12T18:50:30.729Z,18.90
2023-01-12T18:53:16.337Z,18.00
2023-01-12T18:55:43.081Z,18.90
2023-01-12T18:58:10.008Z,18.60
2023-01-12T19:00:37.161Z,20.80
2023-01-12T19:03:05.782Z,20.30
2023-01-12T19:05:37.104Z,21.70
2023-01-12T19:08:23.845Z,20.80
2023-01-12T19:10:50.594Z,21.70
2023-01-12T19:13:36.279Z,20.50
2023-01-12T19:16:21.790Z,20.50
2023-01-12T19:18:48.523Z,18.60
2023-01-12T19:21:33.970Z,17.80
2023-01-12T19:24:19.860Z,15.20
2023-01-12T19:27:05.446Z,14.30
2023-01-12T19:29:32.402Z,13.20
2023-01-12T19:31:59.099Z,12.70
2023-01-12T19:34:25.943Z,10.60
2023-01-12T19:36:52.968Z,10.50
2023-01-12T19:39:27.194Z,10.30
2023-01-12T19:42:12.690Z,10.50
2023-01-12T19:44:39.406Z,9.60
2023-01-12T19:47:06.150Z,10.10
2023-01-12T19:49:32.877Z,11.10
2023-01-12T19:51:59.991Z,11.20
2023-01-12T19:54:27.163Z,16.70
2023-01-12T19:56:53.876Z,13.70
2023-01-12T19:59:20.629Z,13.00
2023-01-12T20:01:47.573Z,11.70
2023-01-12T20:04:14.378Z,10.50
2023-01-12T20:06:41.168Z,12.10
2023-01-12T20:09:07.882Z,12.10
2023-01-12T20:11:34.661Z,11.90
2023-01-12T20:14:01.412Z,12.10
2023-01-12T20:16:28.271Z,12.00
2023-01-12T20:18:56.444Z,12.30
2023-01-12T20:21:23.163Z,11.20
2023-01-12T20:23:49.916Z,11.30
2023-01-12T20:26:16.674Z,12.00
2023-01-12T20:28:43.599Z,12.50
2023-01-12T20:31:15.685Z,13.30
2023-01-12T20:33:42.627Z,13.80
2023-01-12T20:36:13.370Z,13.70
2023-01-12T20:38:41.122Z,13.10
2023-01-12T20:41:08.520Z,12.80
2023-01-12T20:43:35.234Z,12.90
2023-01-12T20:46:02.329Z,11.10
2023-01-12T20:48:29.363Z,11.00
2023-01-12T20:50:56.148Z,11.10
2023-01-12T20:53:26.878Z,11.30
2023-01-12T20:55:53.635Z,12.20
2023-01-12T20:58:20.419Z,11.30
2023-01-12T21:00:47.294Z,11.80
2023-01-12T21:03:14.152Z,12.20
2023-01-12T21:05:42.295Z,13.00
2023-01-12T21:08:09.040Z,12.20
2023-01-12T21:10:37.027Z,12.00
2023-01-12T21:13:03.802Z,11.80
2023-01-12T21:15:30.570Z,11.90
2023-01-12T21:17:57.422Z,12.20
2023-01-12T21:20:24.149Z,13.10
2023-01-12T21:22:50.842Z,13.70
2023-01-12T21:25:17.679Z,14.20
2023-01-12T21:27:44.441Z,13.50
2023-01-12T21:30:12.500Z,13.30
2023-01-12T21:32:39.183Z,12.80
2023-01-12T21:35:06.376Z,13.40
2023-01-12T21:37:33.184Z,13.30
2023-01-12T21:39:59.925Z,14.70
2023-01-12T21:42:47.016Z,14.40
2023-01-12T21:45:13.879Z,13.40
2023-01-12T21:47:40.600Z,14.40
2023-01-12T21:50:08.194Z,13.70
2023-01-12T21:52:34.913Z,13.50
2023-01-12T21:55:01.606Z,12.50
2023-01-12T21:57:28.423Z,12.10
2023-01-12T21:59:55.217Z,14.00
2023-01-12T22:02:22.020Z,12.20
2023-01-12T22:04:48.724Z,14.00
2023-01-12T22:07:15.484Z,14.40
2023-01-12T22:09:42.285Z,13.90
2023-01-12T22:12:09.022Z,12.00
2023-01-12T22:14:35.736Z,12.00
2023-01-12T22:17:02.462Z,11.10
2023-01-12T22:19:29.133Z,11.20
2023-01-12T22:21:55.864Z,10.90
2023-01-12T22:24:22.681Z,10.70
2023-01-12T22:26:49.401Z,10.40
2023-01-12T22:29:16.177Z,10.60
2023-01-12T22:31:42.927Z,10.00
2023-01-12T22:34:09.767Z,9.40
2023-01-12T22:36:42.735Z,10.30
2023-01-12T22:39:11.659Z,10.20
2023-01-12T22:41:39.769Z,10.20
2023-01-12T22:44:06.516Z,11.00
2023-01-12T22:46:33.297Z,11.80
2023-01-12T22:48:59.992Z,11.10
2023-01-12T22:51:27.492Z,11.30
2023-01-12T22:53:54.503Z,10.90
2023-01-12T22:56:21.427Z,11.50
2023-01-12T22:58:48.866Z,10.90
2023-01-12T23:01:15.919Z,11.00
2023-01-12T23:03:42.721Z,11.60
2023-01-12T23:06:13.773Z,11.50
2023-01-12T23:08:40.723Z,10.20
2023-01-12T23:11:09.383Z,12.10
2023-01-12T23:13:36.140Z,11.30
2023-01-12T23:16:05.251Z,10.50
2023-01-12T23:18:32.845Z,11.60
2023-01-12T23:21:20.801Z,11.10
2023-01-12T23:23:49.231Z,11.20
2023-01-12T23:26:19.971Z,10.30
2023-01-12T23:28:48.387Z,10.10
2023-01-12T23:31:16.947Z,10.50
2023-01-12T23:33:43.807Z,10.90
2023-01-12T23:36:15.489Z,11.20
2023-01-12T23:38:42.787Z,12.50
2023-01-12T23:41:10.618Z,11.30
2023-01-12T23:43:37.675Z,12.40
2023-01-12T23:46:04.556Z,11.00
2023-01-12T23:48:31.329Z,12.20
2023-01-12T23:50:59.106Z,13.30
2023-01-12T23:53:26.483Z,12.60
2023-01-12T23:55:53.968Z,12.50
2023-01-12T23:58:21.352Z,12.00
